Time;durP1;ratioP1;P1;durP2;ratioP2;P2;SDS_P1;SDS_P2;PMS_P1;PMS_P2;Temp;Humidity;BMP_temperature;BMP_pressure;BME280_temperature;BME280_humidity;BME280_pressure;Samples;Min_cycle;Max_cycle;Signal;HPM_P1;HPM_P2
2023/12/18 00:01:33;;;;;;;11.37;8.47;;;-0.40;38.00;;;;;;4995172;28;20723;-69
2023/12/18 00:04:03;;;;;;;10.95;8.40;;;-0.40;37.80;;;;;;5013094;28;20588;-69
2023/12/18 00:06:29;;;;;;;9.32;8.30;;;-0.40;39.00;;;;;;5013193;28;20172;-70
2023/12/18 00:08:54;;;;;;;9.75;7.97;;;-0.30;38.80;;;;;;5012887;28;20172;-70
2023/12/18 00:11:20;;;;;;;9.70;7.73;;;-0.40;39.00;;;;;;5012912;28;20215;-69
2023/12/18 00:13:45;;;;;;;13.87;11.70;;;-0.30;39.10;;;;;;4995383;28;20291;-69
2023/12/18 00:16:11;;;;;;;15.33;10.60;;;-0.30;38.80;;;;;;5013568;28;20191;-69
2023/12/18 00:18:36;;;;;;;12.70;10.37;;;-0.30;38.80;;;;;;4995132;28;20191;-69
2023/12/18 00:21:03;;;;;;;11.60;9.60;;;-0.20;38.30;;;;;;5013472;28;20195;-69
2023/12/18 00:23:28;;;;;;;13.63;11.93;;;-0.20;38.70;;;;;;5013049;28;20176;-69
2023/12/18 00:25:54;;;;;;;14.27;10.47;;;-0.30;37.90;;;;;;5012620;28;20187;-69
2023/12/18 00:28:20;;;;;;;17.40;10.30;;;-0.30;38.70;;;;;;5012806;28;20199;-69
2023/12/18 00:30:45;;;;;;;15.13;10.20;;;-0.20;38.70;;;;;;5012868;28;20291;-70
2023/12/18 00:33:11;;;;;;;15.23;9.83;;;-0.30;39.10;;;;;;5012797;28;20227;-71
2023/12/18 00:35:36;;;;;;;12.53;9.67;;;-0.30;38.80;;;;;;5012924;28;20183;-69
2023/12/18 00:38:02;;;;;;;20.90;9.87;;;-0.30;38.70;;;;;;4994832;28;20176;-70
2023/12/18 00:40:27;;;;;;;13.37;9.47;;;-0.30;38.70;;;;;;5011983;28;20227;-70
2023/12/18 00:42:53;;;;;;;13.10;9.77;;;-0.30;38.10;;;;;;5012405;28;20176;-70
2023/12/18 00:45:19;;;;;;;14.37;10.83;;;-0.40;37.90;;;;;;5012371;28;20188;-70
2023/12/18 00:47:44;;;;;;;12.80;10.40;;;-0.40;38.10;;;;;;5012122;28;20176;-70
2023/12/18 00:50:10;;;;;;;15.63;10.03;;;-0.40;38.50;;;;;;5012095;28;20215;-70
2023/12/18 00:52:39;;;;;;;12.50;9.27;;;-0.40;37.50;;;;;;5012226;28;20600;-69
2023/12/18 00:55:07;;;;;;;16.50;10.73;;;-0.40;37.50;;;;;;5012338;28;20172;-70
2023/12/18 00:57:33;;;;;;;13.98;10.65;;;-0.50;36.80;;;;;;5012315;28;20180;-69
2023/12/18 01:00:00;;;;;;;12.97;9.73;;;-0.50;37.40;;;;;;4994225;28;20207;-69
2023/12/18 01:02:25;;;;;;;13.10;9.15;;;-0.50;37.80;;;;;;4994682;28;20418;-69
2023/12/18 01:04:51;;;;;;;12.07;10.00;;;-0.50;37.60;;;;;;5012099;28;20183;-69
2023/12/18 01:07:17;;;;;;;11.80;8.93;;;-0.50;37.40;;;;;;5012024;28;20237;-69
2023/12/18 01:09:42;;;;;;;13.17;10.03;;;-0.50;37.00;;;;;;5012160;28;20519;-70
2023/12/18 01:12:08;;;;;;;14.50;8.43;;;-0.60;36.50;;;;;;5012018;28;20176;-69
2023/12/18 01:14:34;;;;;;;10.37;7.70;;;-0.60;36.20;;;;;;5012273;28;20167;-70
2023/12/18 01:16:59;;;;;;;10.80;9.10;;;-0.60;37.40;;;;;;5011975;28;20532;-69
2023/12/18 01:19:25;;;;;;;11.37;7.40;;;-0.60;37.00;;;;;;5011813;28;20223;-70
2023/12/18 01:21:50;;;;;;;10.43;8.40;;;-0.60;37.60;;;;;;5011944;28;20215;-71
2023/12/18 01:24:17;;;;;;;9.77;8.20;;;-0.70;36.70;;;;;;5011815;28;20240;-68
2023/12/18 01:26:43;;;;;;;9.23;8.30;;;-0.70;37.80;;;;;;5011962;28;20230;-69
2023/12/18 01:29:09;;;;;;;13.00;8.80;;;-0.70;37.10;;;;;;5011963;28;20172;-69
2023/12/18 01:31:35;;;;;;;11.50;7.87;;;-0.70;36.70;;;;;;5011990;28;20210;-68
2023/12/18 01:34:00;;;;;;;8.95;7.65;;;-0.70;37.50;;;;;;5012122;28;20182;-68
2023/12/18 01:36:26;;;;;;;10.53;7.97;;;-0.70;36.80;;;;;;5011921;28;20176;-68
2023/12/18 01:38:51;;;;;;;11.17;6.40;;;-0.70;36.80;;;;;;4994148;28;20179;-69
2023/12/18 01:41:17;;;;;;;18.30;8.00;;;-0.70;38.00;;;;;;5011862;28;20206;-69
2023/12/18 01:43:43;;;;;;;9.00;7.53;;;-0.70;36.90;;;;;;5011721;28;20175;-69
2023/12/18 01:46:12;;;;;;;10.47;7.33;;;-0.70;36.20;;;;;;4994130;28;20425;-68
2023/12/18 01:48:37;;;;;;;9.23;6.88;;;-0.80;36.70;;;;;;5011441;28;20837;-69
2023/12/18 01:51:04;;;;;;;11.47;8.13;;;-0.80;36.60;;;;;;5012621;28;20214;-69
2023/12/18 01:53:33;;;;;;;11.73;8.05;;;-0.80;36.30;;;;;;5015576;28;20175;-69
2023/12/18 01:56:01;;;;;;;10.15;6.97;;;-0.80;36.20;;;;;;4997565;28;20172;-69
2023/12/18 01:58:30;;;;;;;9.18;7.28;;;-0.80;36.70;;;;;;5015398;28;20196;-68
2023/12/18 02:00:56;;;;;;;9.35;7.05;;;-0.80;36.50;;;;;;5015330;28;20707;-70
2023/12/18 02:03:23;;;;;;;8.00;6.00;;;-0.90;36.80;;;;;;5015515;28;20270;-69
2023/12/18 02:05:49;;;;;;;7.75;6.63;;;-0.90;35.90;;;;;;5015455;28;20239;-68
2023/12/18 02:08:15;;;;;;;12.77;6.70;;;-0.90;37.00;;;;;;5015434;28;20199;-69
2023/12/18 02:10:40;;;;;;;9.63;7.20;;;-0.80;37.20;;;;;;5015196;28;20234;-69
2023/12/18 02:13:06;;;;;;;8.47;6.40;;;-0.90;35.80;;;;;;5015489;28;20176;-68
2023/12/18 02:15:32;;;;;;;10.30;7.57;;;-0.90;37.10;;;;;;5015667;28;20566;-69
2023/12/18 02:17:57;;;;;;;7.23;6.30;;;-0.90;36.80;;;;;;5015320;28;20259;-69
2023/12/18 02:20:23;;;;;;;8.60;6.17;;;-0.90;37.10;;;;;;5015381;28;20196;-69
2023/12/18 02:22:48;;;;;;;8.67;6.53;;;-0.90;37.30;;;;;;5015291;28;20656;-68
2023/12/18 02:25:18;;;;;;;8.07;6.27;;;-0.90;36.60;;;;;;5015147;28;20233;-68
2023/12/18 02:27:44;;;;;;;7.30;5.65;;;-0.90;36.70;;;;;;5015103;28;20182;-68
2023/12/18 02:30:22;;;;;;;7.93;6.35;;;-0.90;36.60;;;;;;5016300;28;20296;-68
2023/12/18 02:32:48;;;;;;;7.72;5.35;;;-0.90;36.50;;;;;;5016426;28;20176;-68
2023/12/18 02:35:13;;;;;;;9.47;5.63;;;-0.90;35.80;;;;;;5015987;28;20179;-68
2023/12/18 02:37:39;;;;;;;7.40;5.80;;;-0.90;36.10;;;;;;5014704;28;20271;-67
2023/12/18 02:40:05;;;;;;;9.77;6.20;;;-0.90;35.90;;;;;;4997191;28;20287;-68
2023/12/18 02:42:31;;;;;;;8.15;6.00;;;-1.00;35.80;;;;;;5014787;28;20194;-68
2023/12/18 02:44:56;;;;;;;8.67;6.30;;;-1.00;37.20;;;;;;5015225;28;20258;-68
2023/12/18 02:47:22;;;;;;;8.03;6.10;;;-1.00;36.90;;;;;;5015072;28;20316;-69
2023/12/18 02:49:48;;;;;;;7.37;5.30;;;-1.00;37.00;;;;;;5014679;28;20211;-68
2023/12/18 02:52:13;;;;;;;8.30;6.10;;;-1.00;36.60;;;;;;5015182;28;20759;-68
2023/12/18 02:54:39;;;;;;;9.50;6.47;;;-0.90;37.20;;;;;;5015095;28;20644;-69
2023/12/18 02:57:05;;;;;;;13.13;7.03;;;-1.00;35.60;;;;;;4996754;28;20219;-69
2023/12/18 02:59:30;;;;;;;9.03;6.53;;;-1.00;37.20;;;;;;5013820;28;20175;-69
2023/12/18 03:01:56;;;;;;;8.10;7.17;;;-1.00;36.90;;;;;;5013862;28;20179;-69
2023/12/18 03:04:22;;;;;;;10.07;7.03;;;-1.00;36.40;;;;;;5014092;28;20407;-69
2023/12/18 03:06:48;;;;;;;8.27;6.13;;;-1.00;36.80;;;;;;5013959;28;20183;-69
2023/12/18 03:09:14;;;;;;;6.53;5.93;;;-1.10;36.80;;;;;;5014186;28;20186;-69
2023/12/18 03:11:44;;;;;;;6.43;5.40;;;-1.10;37.00;;;;;;5014104;28;20216;-68
2023/12/18 03:14:10;;;;;;;13.10;6.82;;;-1.00;38.20;;;;;;5013840;28;20415;-68
2023/12/18 03:16:39;;;;;;;10.90;8.15;;;-1.00;37.90;;;;;;5013964;28;20230;-68
2023/12/18 03:19:05;;;;;;;6.75;5.78;;;-1.00;38.20;;;;;;5013669;28;20198;-68
2023/12/18 03:21:31;;;;;;;9.02;6.43;;;-0.90;38.50;;;;;;5013685;28;20195;-69
2023/12/18 03:23:57;;;;;;;10.68;6.68;;;-0.80;38.90;;;;;;5014082;28;20381;-69
2023/12/18 03:26:23;;;;;;;8.60;7.70;;;-0.90;38.30;;;;;;5013704;28;20172;-69
2023/12/18 03:28:49;;;;;;;11.33;6.80;;;-0.90;37.60;;;;;;5013303;28;20468;-69
2023/12/18 03:31:15;;;;;;;7.70;6.32;;;-1.00;37.60;;;;;;5013450;28;20591;-69
2023/12/18 03:33:41;;;;;;;11.17;7.20;;;-1.00;37.30;;;;;;5013558;28;20164;-69
2023/12/18 03:36:07;;;;;;;13.48;7.45;;;-1.00;37.10;;;;;;5013490;28;20176;-69
2023/12/18 03:38:33;;;;;;;7.38;6.53;;;-1.00;37.60;;;;;;5013196;28;20207;-69
2023/12/18 03:40:59;;;;;;;8.60;6.63;;;-1.00;37.70;;;;;;5013423;28;20231;-71
2023/12/18 03:43:26;;;;;;;9.02;6.07;;;-1.00;37.50;;;;;;5013482;28;20180;-70
2023/12/18 03:45:52;;;;;;;6.30;5.70;;;-1.00;37.40;;;;;;4995701;28;20179;-70
2023/12/18 03:48:19;;;;;;;7.00;5.60;;;-1.00;37.20;;;;;;5013076;28;20183;-70
2023/12/18 03:50:45;;;;;;;9.00;6.32;;;-1.00;37.10;;;;;;5012992;28;20207;-70
2023/12/18 03:53:10;;;;;;;11.77;7.97;;;-1.00;37.20;;;;;;5014338;28;20619;-69
2023/12/18 03:55:36;;;;;;;7.13;6.13;;;-1.00;37.30;;;;;;5016377;28;20182;-69
2023/12/18 03:58:02;;;;;;;8.10;5.47;;;-1.00;37.30;;;;;;5016082;28;20199;-70
2023/12/18 04:00:28;;;;;;;6.20;5.60;;;-1.00;37.00;;;;;;5049686;22;21065;-74
2023/12/18 04:02:53;;;;;;;9.60;6.30;;;-1.00;36.90;;;;;;5053190;28;20817;-73
2023/12/18 04:05:19;;;;;;;7.03;5.60;;;-1.00;36.60;;;;;;5052915;28;20644;-73
2023/12/18 04:07:45;;;;;;;9.07;6.00;;;-1.10;36.10;;;;;;5052857;28;20213;-73
2023/12/18 04:10:11;;;;;;;6.33;5.63;;;-1.10;36.70;;;;;;5052756;28;20463;-73
2023/12/18 04:12:37;;;;;;;6.50;5.37;;;-1.10;36.50;;;;;;5034936;28;20839;-73
2023/12/18 04:15:04;;;;;;;8.00;5.40;;;-1.10;37.00;;;;;;5052117;28;20539;-74
2023/12/18 04:17:30;;;;;;;8.05;6.07;;;-1.10;37.60;;;;;;5052638;28;20470;-73
2023/12/18 04:19:55;;;;;;;7.40;5.80;;;-1.10;36.50;;;;;;5052259;28;20692;-73
2023/12/18 04:22:30;;;;;;;7.70;5.77;;;-1.10;37.20;;;;;;5052498;28;20409;-73
2023/12/18 04:24:56;;;;;;;7.88;5.68;;;-1.10;36.60;;;;;;5052478;28;20185;-73
2023/12/18 04:27:21;;;;;;;9.80;5.60;;;-1.10;36.50;;;;;;5052731;28;20171;-72
2023/12/18 04:29:47;;;;;;;8.20;5.53;;;-1.10;36.20;;;;;;5052307;28;20370;-73
2023/12/18 04:32:13;;;;;;;6.60;5.20;;;-1.10;36.00;;;;;;5052423;28;20656;-73
2023/12/18 04:34:39;;;;;;;5.60;4.60;;;-1.20;35.80;;;;;;5052430;28;20170;-72
2023/12/18 04:37:05;;;;;;;12.32;5.88;;;-1.20;36.40;;;;;;5052451;28;20245;-73
2023/12/18 04:39:32;;;;;;;6.20;5.30;;;-1.20;36.30;;;;;;5052228;28;20171;-73
2023/12/18 04:41:58;;;;;;;6.65;4.57;;;-1.20;36.00;;;;;;5052216;28;20626;-73
2023/12/18 04:44:23;;;;;;;6.60;5.47;;;-1.20;36.00;;;;;;5052329;28;20206;-73
2023/12/18 04:46:49;;;;;;;11.60;5.90;;;-1.20;36.20;;;;;;5052160;28;20175;-73
2023/12/18 04:49:14;;;;;;;8.23;5.33;;;-1.20;36.30;;;;;;5052002;28;20248;-73
2023/12/18 04:51:40;;;;;;;9.93;6.47;;;-1.20;36.30;;;;;;5051506;28;20214;-73
2023/12/18 04:54:05;;;;;;;9.57;6.20;;;-1.20;36.40;;;;;;5052083;28;20178;-73
2023/12/18 04:56:31;;;;;;;7.50;6.63;;;-1.20;35.80;;;;;;5052300;28;20180;-73
2023/12/18 04:58:56;;;;;;;7.80;5.07;;;-1.30;35.90;;;;;;5051913;28;20540;-72
2023/12/18 05:01:22;;;;;;;7.87;6.17;;;-1.30;36.20;;;;;;5051920;28;20202;-71
2023/12/18 05:03:47;;;;;;;7.37;5.13;;;-1.30;36.90;;;;;;5051915;28;20190;-72
2023/12/18 05:06:25;;;;;;;6.90;5.10;;;-1.20;36.80;;;;;;5051674;28;20554;-71
2023/12/18 05:08:51;;;;;;;10.80;6.05;;;-1.20;35.80;;;;;;5051311;28;20177;-72
2023/12/18 05:11:18;;;;;;;8.95;5.90;;;-1.20;36.70;;;;;;5051643;28;20220;-72
2023/12/18 05:13:44;;;;;;;7.57;5.65;;;-1.30;36.30;;;;;;5051891;28;20171;-72
2023/12/18 05:16:10;;;;;;;8.20;5.80;;;-1.30;37.80;;;;;;5051771;28;20637;-72
2023/12/18 05:18:36;;;;;;;8.47;5.93;;;-1.20;38.00;;;;;;5033650;28;20210;-72
2023/12/18 05:21:03;;;;;;;9.40;7.07;;;-1.20;36.90;;;;;;5051601;28;20202;-71
2023/12/18 05:23:28;;;;;;;11.07;6.43;;;-1.10;37.10;;;;;;5051763;28;20553;-71
2023/12/18 05:25:54;;;;;;;7.90;4.57;;;-1.10;35.70;;;;;;5051741;28;20225;-72
2023/12/18 05:28:19;;;;;;;7.90;5.27;;;-1.20;35.90;;;;;;5034239;28;20285;-72
2023/12/18 05:30:45;;;;;;;6.10;4.50;;;-1.20;37.90;;;;;;5034314;28;20206;-72
2023/12/18 05:33:11;;;;;;;12.70;5.17;;;-1.20;38.10;;;;;;5052310;28;20177;-71
2023/12/18 05:35:37;;;;;;;8.05;5.90;;;-1.10;38.10;;;;;;5033957;28;20208;-71
2023/12/18 05:38:02;;;;;;;6.80;5.10;;;-1.10;38.00;;;;;;5033560;28;20202;-71
2023/12/18 05:40:28;;;;;;;7.97;6.37;;;-1.10;38.00;;;;;;5051601;28;20688;-74
2023/12/18 05:42:53;;;;;;;7.47;5.83;;;-1.10;37.30;;;;;;5051738;28;20174;-72
2023/12/18 05:45:19;;;;;;;8.40;7.10;;;-1.10;37.50;;;;;;5033282;28;20186;-71
2023/12/18 05:47:45;;;;;;;12.00;8.57;;;-1.10;36.80;;;;;;5033567;28;20178;-72
2023/12/18 05:50:11;;;;;;;11.18;9.98;;;-1.10;37.80;;;;;;5051185;28;20220;-71
2023/12/18 05:52:37;;;;;;;12.68;8.70;;;-1.10;37.30;;;;;;5051157;28;20321;-71
2023/12/18 05:55:03;;;;;;;8.87;7.63;;;-1.00;37.90;;;;;;5051355;28;20202;-71
2023/12/18 05:57:29;;;;;;;10.18;6.45;;;-1.00;37.30;;;;;;5033471;28;20201;-72
2023/12/18 05:59:54;;;;;;;9.10;6.63;;;-1.00;37.20;;;;;;5033049;28;20279;-71
2023/12/18 06:02:20;;;;;;;7.00;6.30;;;-1.00;37.00;;;;;;5033394;28;20285;-72
2023/12/18 06:04:46;;;;;;;7.65;5.75;;;-1.00;36.70;;;;;;5051362;28;20305;-72
2023/12/18 06:07:12;;;;;;;6.23;4.40;;;-1.10;36.20;;;;;;5051314;28;20672;-72
2023/12/18 06:09:38;;;;;;;7.70;6.23;;;-1.10;36.60;;;;;;5032945;28;20193;-73
2023/12/18 06:12:04;;;;;;;7.38;5.47;;;-1.10;36.20;;;;;;5033147;28;20209;-72
2023/12/18 06:14:30;;;;;;;10.13;5.53;;;-1.10;36.60;;;;;;5033200;28;20241;-72
2023/12/18 06:16:55;;;;;;;8.93;5.00;;;-1.10;36.90;;;;;;5051366;28;20183;-71
2023/12/18 06:19:21;;;;;;;6.63;5.73;;;-1.10;37.20;;;;;;5051081;28;20189;-72
2023/12/18 06:21:47;;;;;;;8.40;6.47;;;-1.10;36.50;;;;;;5051067;28;20206;-72
2023/12/18 06:24:12;;;;;;;11.30;7.33;;;-1.10;35.10;;;;;;5051688;28;20174;-72
2023/12/18 06:26:38;;;;;;;6.23;4.73;;;-1.10;35.70;;;;;;5051097;28;20179;-71
2023/12/18 06:29:03;;;;;;;7.00;4.50;;;-1.10;35.60;;;;;;5051112;28;20193;-71
2023/12/18 06:31:29;;;;;;;6.53;5.30;;;-1.10;35.60;;;;;;5051419;28;20202;-72
2023/12/18 06:33:54;;;;;;;6.37;4.70;;;-1.10;36.30;;;;;;5052976;28;20182;-71
2023/12/18 06:36:20;;;;;;;6.50;4.77;;;-1.10;36.10;;;;;;5034644;28;20170;-73
2023/12/18 06:38:46;;;;;;;6.70;4.45;;;-1.10;35.70;;;;;;5055099;28;20170;-70
2023/12/18 06:41:11;;;;;;;8.77;6.20;;;-1.00;35.60;;;;;;5055150;28;20264;-71
2023/12/18 06:43:38;;;;;;;6.57;5.33;;;-1.10;33.80;;;;;;5055274;28;20266;-73
2023/12/18 06:46:04;;;;;;;6.00;4.60;;;-1.10;35.80;;;;;;5054782;28;20178;-70
2023/12/18 06:48:30;;;;;;;5.97;5.32;;;-1.10;35.60;;;;;;5036361;28;20272;-71
2023/12/18 06:50:56;;;;;;;9.67;5.37;;;-1.10;36.00;;;;;;5054668;28;20292;-71
2023/12/18 06:53:21;;;;;;;10.80;7.50;;;-1.10;34.40;;;;;;5054504;28;20418;-71
2023/12/18 06:55:47;;;;;;;7.60;6.20;;;-1.20;33.80;;;;;;5054962;28;20588;-71
2023/12/18 06:58:12;;;;;;;8.47;6.70;;;-1.20;35.80;;;;;;5054682;28;20668;-71
2023/12/18 07:00:38;;;;;;;9.77;7.77;;;-1.20;38.10;;;;;;5054406;28;20210;-71
2023/12/18 07:03:03;;;;;;;14.83;8.20;;;-1.10;38.10;;;;;;5054585;28;20707;-71
2023/12/18 07:05:29;;;;;;;11.10;6.70;;;-1.00;39.80;;;;;;5036817;28;20724;-70
2023/12/18 07:07:57;;;;;;;10.73;6.60;;;-1.00;40.20;;;;;;5036665;28;20193;-71
2023/12/18 07:10:23;;;;;;;11.00;7.10;;;-1.00;40.80;;;;;;5036641;28;20240;-71
2023/12/18 07:12:49;;;;;;;9.30;7.50;;;-0.90;40.30;;;;;;5054751;28;20170;-71
2023/12/18 07:15:15;;;;;;;12.23;7.60;;;-0.90;39.80;;;;;;5054461;28;20182;-71
2023/12/18 07:17:40;;;;;;;10.63;7.43;;;-0.80;38.40;;;;;;5054021;28;20297;-71
2023/12/18 07:20:08;;;;;;;9.67;6.50;;;-0.80;38.40;;;;;;5054006;28;20436;-71
2023/12/18 07:22:34;;;;;;;7.35;6.03;;;-0.80;37.90;;;;;;5036058;28;20186;-70
2023/12/18 07:24:59;;;;;;;9.87;6.70;;;-0.80;36.60;;;;;;5053876;28;20171;-71
2023/12/18 07:27:25;;;;;;;9.77;7.87;;;-0.80;36.00;;;;;;5053481;28;20416;-71
2023/12/18 07:29:50;;;;;;;10.97;7.10;;;-0.80;36.00;;;;;;5053211;28;20283;-71
2023/12/18 07:32:16;;;;;;;10.83;7.50;;;-0.80;36.60;;;;;;5053772;28;20232;-71
2023/12/18 07:34:42;;;;;;;10.67;8.30;;;-0.80;35.90;;;;;;5032708;28;20198;-73
2023/12/18 07:37:08;;;;;;;10.10;7.57;;;-0.80;36.80;;;;;;5050072;28;20175;-70
2023/12/18 07:39:33;;;;;;;9.73;7.93;;;-0.80;36.50;;;;;;5031514;28;21060;-71
2023/12/18 07:41:59;;;;;;;9.97;7.70;;;-0.80;36.50;;;;;;5048713;28;20358;-71
2023/12/18 07:44:25;;;;;;;8.75;7.00;;;-0.80;35.70;;;;;;5049478;28;20710;-71
2023/12/18 07:46:52;;;;;;;8.30;6.67;;;-0.70;36.40;;;;;;5031294;28;20174;-72
2023/12/18 07:49:17;;;;;;;11.98;7.53;;;-0.70;36.00;;;;;;5045948;28;20549;-71
2023/12/18 07:51:43;;;;;;;11.33;7.13;;;-0.70;35.80;;;;;;5049153;28;20215;-70
2023/12/18 07:54:08;;;;;;;8.77;6.10;;;-0.60;35.10;;;;;;5034977;28;20685;-70
2023/12/18 07:56:34;;;;;;;8.80;7.37;;;-0.60;36.20;;;;;;5055444;28;20181;-71
2023/12/18 07:59:00;;;;;;;13.37;8.27;;;-0.50;35.80;;;;;;5056766;28;20275;-71
2023/12/18 08:01:26;;;;;;;12.07;8.27;;;-0.50;33.60;;;;;;5030910;28;20214;-70
2023/12/18 08:03:51;;;;;;;9.13;7.53;;;-0.40;34.90;;;;;;5030978;28;20425;-70
2023/12/18 08:06:17;;;;;;;11.67;8.00;;;-0.50;35.80;;;;;;5049166;28;20195;-70
2023/12/18 08:08:43;;;;;;;11.02;7.88;;;-0.50;37.00;;;;;;5048496;28;20193;-70
2023/12/18 08:11:09;;;;;;;10.20;7.53;;;-0.50;36.50;;;;;;5030429;28;20221;-70
2023/12/18 08:13:38;;;;;;;9.90;8.05;;;-0.40;38.70;;;;;;5049056;28;20711;-70
2023/12/18 08:16:08;;;;;;;10.00;6.85;;;-0.30;38.60;;;;;;5031341;28;20583;-73
2023/12/18 08:18:37;;;;;;;9.02;7.13;;;-0.20;38.90;;;;;;5029894;28;20218;-72
2023/12/18 08:21:12;;;;;;;13.00;9.02;;;-0.10;38.90;;;;;;5048195;28;20210;-73
2023/12/18 08:24:02;;;;;;;10.85;7.85;;;-0.10;38.60;;;;;;5048098;28;20657;-72
2023/12/18 08:26:27;;;;;;;11.20;7.53;;;-0.10;37.60;;;;;;5030133;28;20197;-71
2023/12/18 08:28:53;;;;;;;8.53;6.60;;;0.00;37.70;;;;;;5048088;28;20685;-72
2023/12/18 08:31:19;;;;;;;9.37;7.83;;;0.10;39.10;;;;;;5048296;28;20206;-71
2023/12/18 08:33:47;;;;;;;9.30;7.80;;;0.20;37.00;;;;;;5048401;28;20202;-71
2023/12/18 08:36:12;;;;;;;8.40;6.82;;;0.30;37.10;;;;;;5034449;28;20222;-73
2023/12/18 08:38:39;;;;;;;11.13;8.30;;;0.30;38.50;;;;;;5054866;28;20571;-72
2023/12/18 08:41:05;;;;;;;8.70;6.35;;;0.50;37.90;;;;;;5037216;28;20207;-71
2023/12/18 08:43:31;;;;;;;11.75;7.80;;;0.60;36.10;;;;;;5033622;28;20190;-74
2023/12/18 08:45:57;;;;;;;7.83;7.03;;;0.60;36.50;;;;;;5052776;28;20178;-73
2023/12/18 08:48:25;;;;;;;7.77;6.80;;;0.70;36.00;;;;;;5052456;28;20677;-73
2023/12/18 08:50:50;;;;;;;8.65;7.47;;;0.80;35.30;;;;;;5055440;28;20208;-72
2023/12/18 08:53:16;;;;;;;13.10;7.37;;;0.90;34.20;;;;;;5057710;28;20262;-72
2023/12/18 08:55:42;;;;;;;9.53;8.17;;;0.90;33.10;;;;;;5057763;28;20733;-72
2023/12/18 08:58:08;;;;;;;11.07;7.30;;;1.00;32.50;;;;;;5039620;28;20185;-70
2023/12/18 09:00:35;;;;;;;11.23;7.80;;;1.10;32.70;;;;;;5058381;28;20209;-72
2023/12/18 09:03:00;;;;;;;8.13;6.97;;;1.10;32.00;;;;;;5040861;28;20180;-71
2023/12/18 09:05:27;;;;;;;8.47;7.47;;;1.20;33.00;;;;;;5057733;28;20183;-71
2023/12/18 09:07:52;;;;;;;11.43;8.23;;;1.30;33.10;;;;;;5057097;28;20190;-71
2023/12/18 09:10:22;;;;;;;7.83;6.80;;;1.30;31.40;;;;;;5039076;28;20216;-71
2023/12/18 09:12:47;;;;;;;10.13;7.70;;;1.40;28.60;;;;;;5035599;28;20274;-71
2023/12/18 09:15:16;;;;;;;9.13;6.80;;;1.60;26.50;;;;;;5052210;28;20793;-71
2023/12/18 09:17:42;;;;;;;12.70;8.82;;;1.70;24.60;;;;;;5051475;28;20827;-71
2023/12/18 09:20:08;;;;;;;8.60;6.80;;;1.70;22.80;;;;;;5051603;28;20228;-69
2023/12/18 09:22:39;;;;;;;9.67;8.00;;;1.80;23.30;;;;;;5051628;28;20180;-70
2023/12/18 09:25:05;;;;;;;12.48;7.57;;;1.90;21.60;;;;;;5033759;28;20418;-69
2023/12/18 09:27:31;;;;;;;12.80;8.73;;;2.00;21.40;;;;;;5051840;28;20177;-71
2023/12/18 09:29:57;;;;;;;7.82;6.07;;;2.10;22.40;;;;;;5051214;28;20460;-70
2023/12/18 09:32:24;;;;;;;8.68;7.18;;;2.20;19.40;;;;;;5051625;28;20181;-70
2023/12/18 09:34:49;;;;;;;10.90;7.03;;;2.40;18.50;;;;;;5051441;28;20253;-69
2023/12/18 09:37:15;;;;;;;7.63;5.70;;;2.50;16.10;;;;;;5051677;28;20205;-70
2023/12/18 09:39:43;;;;;;;10.03;7.50;;;2.60;15.80;;;;;;5051434;28;20188;-69
2023/12/18 09:42:10;;;;;;;9.68;7.45;;;2.70;16.20;;;;;;5033546;28;20288;-70
2023/12/18 09:44:40;;;;;;;6.50;5.30;;;2.80;11.40;;;;;;5051354;28;20182;-69
2023/12/18 09:47:07;;;;;;;7.63;6.65;;;2.90;12.60;;;;;;5051410;28;20441;-70
2023/12/18 09:49:34;;;;;;;8.83;6.53;;;3.10;10.60;;;;;;5051229;28;20162;-69
2023/12/18 09:52:13;;;;;;;11.03;6.13;;;3.20;10.50;;;;;;5050992;28;20464;-70
2023/12/18 09:54:42;;;;;;;9.43;6.68;;;3.20;11.60;;;;;;5034111;28;20427;-70
2023/12/18 09:57:11;;;;;;;15.63;5.90;;;3.30;11.80;;;;;;5052008;28;20204;-70
2023/12/18 09:59:36;;;;;;;8.87;7.07;;;3.50;9.50;;;;;;5050951;28;20426;-70
2023/12/18 10:02:02;;;;;;;11.87;7.43;;;3.60;9.70;;;;;;5051513;28;20451;-71
2023/12/18 10:04:28;;;;;;;11.47;6.37;;;3.70;8.90;;;;;;5051595;28;20175;-70
2023/12/18 10:06:54;;;;;;;9.63;7.10;;;3.80;9.30;;;;;;5051376;28;20504;-71
2023/12/18 10:09:19;;;;;;;6.13;5.60;;;3.90;9.60;;;;;;5033403;28;20232;-71
2023/12/18 10:11:50;;;;;;;6.97;5.90;;;4.00;9.50;;;;;;5051711;28;20281;-71
2023/12/18 10:14:16;;;;;;;11.23;7.17;;;4.10;9.30;;;;;;5055180;28;20155;-71
2023/12/18 10:16:42;;;;;;;10.97;6.77;;;4.10;8.40;;;;;;5055007;28;20861;-72
2023/12/18 10:19:09;;;;;;;11.80;7.13;;;4.20;7.30;;;;;;5054933;28;20240;-71
2023/12/18 10:21:37;;;;;;;6.93;6.13;;;4.30;7.90;;;;;;5054964;28;20433;-70
2023/12/18 10:24:04;;;;;;;10.10;7.30;;;4.30;7.40;;;;;;5054959;28;20412;-72
2023/12/18 10:26:31;;;;;;;9.00;6.77;;;4.40;6.90;;;;;;5038413;28;20419;-71
2023/12/18 10:28:57;;;;;;;8.80;7.43;;;4.40;6.40;;;;;;5055039;28;20988;-69
2023/12/18 10:31:25;;;;;;;11.73;7.77;;;4.50;5.70;;;;;;5055391;28;20483;-73
2023/12/18 10:33:54;;;;;;;12.90;8.20;;;4.60;5.90;;;;;;5054735;28;20414;-72
2023/12/18 10:36:23;;;;;;;8.70;7.77;;;4.70;5.50;;;;;;5054721;28;20939;-71
2023/12/18 10:39:12;;;;;;;10.40;7.50;;;4.90;4.50;;;;;;5055755;28;20431;-72
2023/12/18 10:41:42;;;;;;;9.53;8.30;;;5.10;3.90;;;;;;5054018;28;20444;-72
2023/12/18 10:44:09;;;;;;;8.83;7.23;;;5.10;3.20;;;;;;5054908;28;20409;-72
2023/12/18 10:46:36;;;;;;;11.70;8.63;;;5.30;4.40;;;;;;5054740;28;20535;-70
2023/12/18 10:49:02;;;;;;;12.60;7.23;;;5.40;4.40;;;;;;5054219;28;20424;-70
2023/12/18 10:51:33;;;;;;;8.17;7.20;;;5.50;4.20;;;;;;5054223;28;20461;-71
2023/12/18 10:53:59;;;;;;;12.50;7.80;;;5.60;3.10;;;;;;5054414;28;20410;-70
2023/12/18 10:56:26;;;;;;;13.97;7.57;;;5.80;1.50;;;;;;5054212;28;20411;-71
2023/12/18 10:58:56;;;;;;;14.03;8.00;;;6.00;1.40;;;;;;5054216;28;20414;-71
2023/12/18 11:01:23;;;;;;;9.23;7.73;;;6.10;1.50;;;;;;5053880;28;20861;-71
2023/12/18 11:03:50;;;;;;;17.10;8.20;;;6.20;1.00;;;;;;5054026;28;20417;-71
2023/12/18 11:06:17;;;;;;;14.10;8.57;;;6.40;1.00;;;;;;5054513;28;20419;-71
2023/12/18 11:08:43;;;;;;;10.40;7.80;;;6.50;1.00;;;;;;5053961;28;20414;-71
2023/12/18 11:11:11;;;;;;;8.80;6.80;;;6.60;1.00;;;;;;5053883;28;20557;-71
2023/12/18 11:14:08;;;;;;;9.33;7.30;;;6.80;1.00;;;;;;5054062;28;20418;-71
2023/12/18 11:16:59;;;;;;;10.73;7.10;;;7.00;1.00;;;;;;5056023;28;20867;-72
2023/12/18 11:19:44;;;;;;;11.70;6.33;;;7.20;1.00;;;;;;5058176;28;20417;-71
2023/12/18 11:22:10;;;;;;;8.87;5.67;;;7.40;1.00;;;;;;5055719;28;20468;-71
2023/12/18 11:24:37;;;;;;;8.90;7.23;;;7.60;1.00;;;;;;5057535;28;20420;-71
2023/12/18 11:27:07;;;;;;;9.80;7.03;;;7.70;1.00;;;;;;5056121;28;20427;-72
2023/12/18 11:29:39;;;;;;;36.60;13.83;;;7.90;1.00;;;;;;5055479;28;20450;-70
2023/12/18 11:32:05;;;;;;;9.93;6.80;;;8.10;1.00;;;;;;5054106;28;20484;-69
2023/12/18 11:34:31;;;;;;;5.83;5.10;;;8.20;1.00;;;;;;5053205;28;20409;-71
2023/12/18 11:36:58;;;;;;;7.63;5.13;;;8.40;1.00;;;;;;5053308;28;20420;-71
2023/12/18 11:39:39;;;;;;;5.60;4.83;;;8.50;1.00;;;;;;5053017;28;20603;-70
2023/12/18 11:42:05;;;;;;;6.80;5.63;;;8.70;1.00;;;;;;5052994;28;20432;-70
2023/12/18 11:44:34;;;;;;;12.43;7.90;;;8.80;1.00;;;;;;5055310;28;20432;-71
2023/12/18 11:47:00;;;;;;;13.70;7.10;;;9.00;1.00;;;;;;5053294;28;20715;-70
2023/12/18 11:49:26;;;;;;;27.50;8.37;;;9.10;1.00;;;;;;5052888;28;20466;-71
2023/12/18 11:51:52;;;;;;;29.13;9.07;;;9.20;1.00;;;;;;5054860;28;20873;-71
2023/12/18 11:54:24;;;;;;;118.87;28.77;;;9.30;1.00;;;;;;5053043;28;20332;-72
2023/12/18 11:56:51;;;;;;;65.70;16.10;;;9.50;1.00;;;;;;5052838;28;20274;-72
2023/12/18 11:59:18;;;;;;;8.90;5.20;;;9.60;1.00;;;;;;5052767;28;20409;-71
2023/12/18 12:01:46;;;;;;;9.57;4.60;;;9.80;1.00;;;;;;5052619;28;20514;-71
2023/12/18 12:04:15;;;;;;;8.30;5.50;;;10.00;1.00;;;;;;5053197;28;20444;-70
2023/12/18 12:06:42;;;;;;;6.60;5.63;;;10.10;1.00;;;;;;5035022;28;20421;-71
2023/12/18 12:09:08;;;;;;;12.47;8.47;;;10.10;1.00;;;;;;5052855;28;20409;-71
2023/12/18 12:11:34;;;;;;;12.67;9.10;;;10.10;1.00;;;;;;5052740;28;20471;-71
2023/12/18 12:14:01;;;;;;;11.83;8.90;;;10.00;1.00;;;;;;5052700;28;20418;-71
2023/12/18 12:16:27;;;;;;;11.80;8.67;;;9.90;1.00;;;;;;5052721;28;20257;-71
2023/12/18 12:18:54;;;;;;;12.87;9.10;;;9.90;1.00;;;;;;5051944;28;20521;-70
2023/12/18 12:21:21;;;;;;;10.27;7.97;;;9.80;1.00;;;;;;5051752;28;20202;-70
2023/12/18 12:23:47;;;;;;;7.57;6.80;;;9.90;1.00;;;;;;5034334;28;20432;-71
2023/12/18 12:26:16;;;;;;;10.20;8.27;;;10.00;1.00;;;;;;5052390;28;20908;-70
2023/12/18 12:28:42;;;;;;;11.70;7.07;;;10.10;1.00;;;;;;5052228;28;20923;-70
2023/12/18 12:31:08;;;;;;;9.10;8.10;;;10.10;1.00;;;;;;5052043;28;20472;-71
2023/12/18 12:33:41;;;;;;;10.30;9.10;;;10.00;1.00;;;;;;5034498;28;20763;-70
2023/12/18 12:36:07;;;;;;;10.07;8.30;;;10.00;1.00;;;;;;5051445;28;20453;-71
2023/12/18 12:38:36;;;;;;;10.67;8.07;;;10.00;1.00;;;;;;5052408;28;20440;-70
2023/12/18 12:41:02;;;;;;;9.40;8.20;;;10.00;1.00;;;;;;5052194;28;20281;-70
2023/12/18 12:43:27;;;;;;;12.93;7.50;;;10.00;1.00;;;;;;5052320;28;20505;-70
2023/12/18 12:45:53;;;;;;;9.00;7.10;;;9.90;1.00;;;;;;5052129;28;20520;-70